sensor_id;sensor_type;location;lat;lon;timestamp;pressure;altitude;pressure_sealevel;temperature;humidity
21594;BME280;10959;51.328;7.322;2023-05-12T00:02:13;73731.06;;;-147.06;61.52
21594;BME280;10959;51.328;7.322;2023-05-12T00:04:40;73722.84;;;-147.06;61.58
21594;BME280;10959;51.328;7.322;2023-05-12T00:07:06;73714.66;;;-147.06;61.44
21594;BME280;10959;51.328;7.322;2023-05-12T00:09:33;73706.47;;;-147.06;61.32
21594;BME280;10959;51.328;7.322;2023-05-12T00:12:00;73710.56;;;-147.06;61.17
21594;BME280;10959;51.328;7.322;2023-05-12T00:14:28;73702.38;;;-147.06;61.05
21594;BME280;10959;51.328;7.322;2023-05-12T00:16:54;73702.38;;;-147.06;61.00
21594;BME280;10959;51.328;7.322;2023-05-12T00:19:22;73700.31;;;-147.06;60.92
21594;BME280;10959;51.328;7.322;2023-05-12T00:21:48;73704.44;;;-147.06;61.09
21594;BME280;10959;51.328;7.322;2023-05-12T00:24:15;73696.22;;;-147.06;60.95
21594;BME280;10959;51.328;7.322;2023-05-12T00:26:41;73696.22;;;-147.06;61.04
21594;BME280;10959;51.328;7.322;2023-05-12T00:29:08;73696.22;;;-147.06;60.89
21594;BME280;10959;51.328;7.322;2023-05-12T00:31:34;73700.31;;;-147.06;60.81
21594;BME280;10959;51.328;7.322;2023-05-12T00:34:01;73700.31;;;-147.06;60.79
21594;BME280;10959;51.328;7.322;2023-05-12T00:36:29;73710.56;;;-147.06;61.02
21594;BME280;10959;51.328;7.322;2023-05-12T00:38:56;73716.72;;;-147.06;61.09
21594;BME280;10959;51.328;7.322;2023-05-12T00:41:22;73737.19;;;-147.06;61.34
21594;BME280;10959;51.328;7.322;2023-05-12T00:43:49;73745.41;;;-147.06;61.48
21594;BME280;10959;51.328;7.322;2023-05-12T00:46:16;73741.28;;;-147.06;61.45
21594;BME280;10959;51.328;7.322;2023-05-12T00:48:43;73735.16;;;-147.06;61.43
21594;BME280;10959;51.328;7.322;2023-05-12T00:51:10;73733.09;;;-147.06;61.04
21594;BME280;10959;51.328;7.322;2023-05-12T00:53:40;73731.06;;;-147.06;60.97
21594;BME280;10959;51.328;7.322;2023-05-12T00:56:07;73729.00;;;-147.06;60.96
21594;BME280;10959;51.328;7.322;2023-05-12T00:58:35;73724.91;;;-147.06;61.16
21594;BME280;10959;51.328;7.322;2023-05-12T01:01:01;73716.72;;;-147.06;60.87
21594;BME280;10959;51.328;7.322;2023-05-12T01:03:28;73716.72;;;-147.06;60.97
21594;BME280;10959;51.328;7.322;2023-05-12T01:06:00;73724.91;;;-147.06;60.68
21594;BME280;10959;51.328;7.322;2023-05-12T01:08:31;73716.72;;;-147.06;60.63
21594;BME280;10959;51.328;7.322;2023-05-12T01:10:59;73712.63;;;-147.06;60.47
21594;BME280;10959;51.328;7.322;2023-05-12T01:13:26;73716.72;;;-147.06;60.60
21594;BME280;10959;51.328;7.322;2023-05-12T01:15:54;73720.81;;;-147.06;60.51
21594;BME280;10959;51.328;7.322;2023-05-12T01:18:22;73726.97;;;-147.06;60.33
21594;BME280;10959;51.328;7.322;2023-05-12T01:20:50;73733.09;;;-147.06;60.49
21594;BME280;10959;51.328;7.322;2023-05-12T01:23:19;73729.00;;;-147.06;60.61
21594;BME280;10959;51.328;7.322;2023-05-12T01:25:50;73745.41;;;-147.06;60.77
21594;BME280;10959;51.328;7.322;2023-05-12T01:28:20;73755.63;;;-147.06;60.68
21594;BME280;10959;51.328;7.322;2023-05-12T01:30:47;73769.97;;;-147.06;61.18
21594;BME280;10959;51.328;7.322;2023-05-12T01:33:14;73774.06;;;-147.06;61.09
21594;BME280;10959;51.328;7.322;2023-05-12T01:35:41;73786.38;;;-147.06;61.69
21594;BME280;10959;51.328;7.322;2023-05-12T01:38:07;73786.38;;;-147.06;61.78
21594;BME280;10959;51.328;7.322;2023-05-12T01:40:34;73798.66;;;-147.06;62.25
21594;BME280;10959;51.328;7.322;2023-05-12T01:43:00;73798.66;;;-147.06;62.43
21594;BME280;10959;51.328;7.322;2023-05-12T01:45:28;73806.84;;;-147.06;62.62
21594;BME280;10959;51.328;7.322;2023-05-12T01:47:55;73810.94;;;-147.06;62.65
21594;BME280;10959;51.328;7.322;2023-05-12T01:50:21;73806.84;;;-147.06;62.53
21594;BME280;10959;51.328;7.322;2023-05-12T01:52:47;73806.84;;;-147.06;62.42
21594;BME280;10959;51.328;7.322;2023-05-12T01:55:14;73806.84;;;-147.06;62.25
21594;BME280;10959;51.328;7.322;2023-05-12T01:57:41;73802.75;;;-147.06;62.07
21594;BME280;10959;51.328;7.322;2023-05-12T02:00:09;73798.66;;;-147.06;62.09
21594;BME280;10959;51.328;7.322;2023-05-12T02:02:38;73800.69;;;-147.06;62.08
21594;BME280;10959;51.328;7.322;2023-05-12T02:05:05;73806.84;;;-147.06;61.86
21594;BME280;10959;51.328;7.322;2023-05-12T02:07:32;73804.78;;;-147.06;62.12
21594;BME280;10959;51.328;7.322;2023-05-12T02:09:59;73794.56;;;-147.06;62.05
21594;BME280;10959;51.328;7.322;2023-05-12T02:12:25;73798.66;;;-147.06;61.76
21594;BME280;10959;51.328;7.322;2023-05-12T02:14:52;73796.59;;;-147.06;61.73
21594;BME280;10959;51.328;7.322;2023-05-12T02:17:18;73796.59;;;-147.06;61.62
21594;BME280;10959;51.328;7.322;2023-05-12T02:19:46;73798.66;;;-147.06;61.61
21594;BME280;10959;51.328;7.322;2023-05-12T02:22:13;73794.56;;;-147.06;61.64
21594;BME280;10959;51.328;7.322;2023-05-12T02:24:39;73798.66;;;-147.06;61.59
21594;BME280;10959;51.328;7.322;2023-05-12T02:27:06;73806.84;;;-147.06;61.44
21594;BME280;10959;51.328;7.322;2023-05-12T02:29:33;73802.75;;;-147.06;61.38
21594;BME280;10959;51.328;7.322;2023-05-12T02:31:59;73798.66;;;-147.06;61.51
21594;BME280;10959;51.328;7.322;2023-05-12T02:34:26;73802.75;;;-147.06;61.56
21594;BME280;10959;51.328;7.322;2023-05-12T02:36:54;73806.84;;;-147.06;61.59
21594;BME280;10959;51.328;7.322;2023-05-12T02:39:20;73800.69;;;-147.06;61.63
21594;BME280;10959;51.328;7.322;2023-05-12T02:41:47;73808.91;;;-147.06;61.57
21594;BME280;10959;51.328;7.322;2023-05-12T02:44:14;73806.84;;;-147.06;61.65
21594;BME280;10959;51.328;7.322;2023-05-12T02:46:41;73819.13;;;-147.06;61.71
21594;BME280;10959;51.328;7.322;2023-05-12T02:49:07;73829.38;;;-147.06;61.86
21594;BME280;10959;51.328;7.322;2023-05-12T02:51:34;73843.72;;;-147.06;62.55
21594;BME280;10959;51.328;7.322;2023-05-12T02:54:04;73851.91;;;-147.06;62.59
21594;BME280;10959;51.328;7.322;2023-05-12T02:56:31;73868.31;;;-147.06;62.92
21594;BME280;10959;51.328;7.322;2023-05-12T02:58:57;73864.19;;;-147.06;62.94
21594;BME280;10959;51.328;7.322;2023-05-12T03:01:24;73872.41;;;-147.06;63.16
21594;BME280;10959;51.328;7.322;2023-05-12T03:03:50;73864.19;;;-147.06;62.80
21594;BME280;10959;51.328;7.322;2023-05-12T03:06:17;73876.50;;;-147.06;62.89
21594;BME280;10959;51.328;7.322;2023-05-12T03:08:43;73880.59;;;-147.06;62.87
21594;BME280;10959;51.328;7.322;2023-05-12T03:11:11;73880.59;;;-147.06;62.80
21594;BME280;10959;51.328;7.322;2023-05-12T03:13:38;73890.84;;;-147.06;63.17
21594;BME280;10959;51.328;7.322;2023-05-12T03:16:05;73901.06;;;-147.06;63.31
21594;BME280;10959;51.328;7.322;2023-05-12T03:18:31;73907.22;;;-147.06;63.58
21594;BME280;10959;51.328;7.322;2023-05-12T03:20:58;73933.84;;;-147.06;63.99
21594;BME280;10959;51.328;7.322;2023-05-12T03:23:24;73956.38;;;-147.06;64.69
21594;BME280;10959;51.328;7.322;2023-05-12T03:25:51;73946.16;;;-147.06;64.67
21594;BME280;10959;51.328;7.322;2023-05-12T03:28:19;73956.38;;;-147.06;64.84
21594;BME280;10959;51.328;7.322;2023-05-12T03:30:47;73987.13;;;-147.06;65.87
21594;BME280;10959;51.328;7.322;2023-05-12T03:33:13;73991.22;;;-147.06;66.43
21594;BME280;10959;51.328;7.322;2023-05-12T03:35:40;73987.13;;;-147.06;66.57
21594;BME280;10959;51.328;7.322;2023-05-12T03:38:06;73995.31;;;-147.06;66.76
21594;BME280;10959;51.328;7.322;2023-05-12T03:40:33;74019.91;;;-147.06;67.31
21594;BME280;10959;51.328;7.322;2023-05-12T03:42:59;74015.78;;;-147.06;67.48
21594;BME280;10959;51.328;7.322;2023-05-12T03:45:27;74028.09;;;-147.06;67.93
21594;BME280;10959;51.328;7.322;2023-05-12T03:47:54;74048.56;;;-147.06;68.13
21594;BME280;10959;51.328;7.322;2023-05-12T03:50:21;74036.28;;;-147.06;68.15
21594;BME280;10959;51.328;7.322;2023-05-12T03:52:48;74056.78;;;-147.06;68.48
21594;BME280;10959;51.328;7.322;2023-05-12T03:55:15;74064.97;;;-147.06;68.89
21594;BME280;10959;51.328;7.322;2023-05-12T03:57:41;74067.00;;;-147.06;69.02
21594;BME280;10959;51.328;7.322;2023-05-12T04:00:09;74052.66;;;-147.06;68.73
21594;BME280;10959;51.328;7.322;2023-05-12T04:02:37;74073.16;;;-147.06;69.38
21594;BME280;10959;51.328;7.322;2023-05-12T04:05:04;74044.47;;;-147.06;68.87
21594;BME280;10959;51.328;7.322;2023-05-12T04:07:32;74062.91;;;-147.06;69.02
21594;BME280;10959;51.328;7.322;2023-05-12T04:09:59;74054.72;;;-147.06;68.84
21594;BME280;10959;51.328;7.322;2023-05-12T04:12:25;74064.97;;;-147.06;69.09
21594;BME280;10959;51.328;7.322;2023-05-12T04:14:52;74044.47;;;-147.06;68.81
21594;BME280;10959;51.328;7.322;2023-05-12T04:17:18;74073.16;;;-147.06;68.50
21594;BME280;10959;51.328;7.322;2023-05-12T04:19:46;74060.88;;;-147.06;68.23
21594;BME280;10959;51.328;7.322;2023-05-12T04:22:13;74050.63;;;-147.06;67.87
21594;BME280;10959;51.328;7.322;2023-05-12T04:24:40;74056.78;;;-147.06;67.79
21594;BME280;10959;51.328;7.322;2023-05-12T04:27:06;74073.16;;;-147.06;67.81
21594;BME280;10959;51.328;7.322;2023-05-12T04:29:33;74081.34;;;-147.06;68.25
21594;BME280;10959;51.328;7.322;2023-05-12T04:31:59;74089.53;;;-147.06;68.59
21594;BME280;10959;51.328;7.322;2023-05-12T04:34:26;74069.06;;;-147.06;68.04
21594;BME280;10959;51.328;7.322;2023-05-12T04:36:54;74062.91;;;-147.06;67.70
21594;BME280;10959;51.328;7.322;2023-05-12T04:39:21;74056.78;;;-147.06;67.67
21594;BME280;10959;51.328;7.322;2023-05-12T04:41:47;74073.16;;;-147.06;67.71
21594;BME280;10959;51.328;7.322;2023-05-12T04:44:14;74089.53;;;-147.06;68.22
21594;BME280;10959;51.328;7.322;2023-05-12T04:46:40;74097.75;;;-147.06;68.16
21594;BME280;10959;51.328;7.322;2023-05-12T04:49:07;74089.53;;;-147.06;68.28
21594;BME280;10959;51.328;7.322;2023-05-12T04:51:33;74093.66;;;-147.06;68.22
21594;BME280;10959;51.328;7.322;2023-05-12T04:54:07;74077.25;;;-147.06;67.78
21594;BME280;10959;51.328;7.322;2023-05-12T04:56:34;74056.78;;;-147.06;67.20
21594;BME280;10959;51.328;7.322;2023-05-12T04:59:01;74060.88;;;-147.06;66.94
21594;BME280;10959;51.328;7.322;2023-05-12T05:01:27;74052.66;;;-147.06;66.92
21594;BME280;10959;51.328;7.322;2023-05-12T05:03:54;74056.78;;;-147.06;66.66
21594;BME280;10959;51.328;7.322;2023-05-12T05:06:20;74077.25;;;-147.06;66.89
21594;BME280;10959;51.328;7.322;2023-05-12T05:08:47;74073.16;;;-147.06;66.94
21594;BME280;10959;51.328;7.322;2023-05-12T05:11:15;74056.78;;;-147.06;66.31
21594;BME280;10959;51.328;7.322;2023-05-12T05:13:41;74069.06;;;-147.06;66.22
21594;BME280;10959;51.328;7.322;2023-05-12T05:16:08;74077.25;;;-147.06;66.04
21594;BME280;10959;51.328;7.322;2023-05-12T05:18:34;74093.66;;;-147.06;66.43
21594;BME280;10959;51.328;7.322;2023-05-12T05:21:02;74097.75;;;-147.06;66.45
21594;BME280;10959;51.328;7.322;2023-05-12T05:23:29;74077.25;;;-147.06;66.21
21594;BME280;10959;51.328;7.322;2023-05-12T05:25:55;74064.97;;;-147.06;65.78
21594;BME280;10959;51.328;7.322;2023-05-12T05:28:23;74085.44;;;-147.06;65.53
21594;BME280;10959;51.328;7.322;2023-05-12T05:30:50;74077.25;;;-147.06;65.44
21594;BME280;10959;51.328;7.322;2023-05-12T05:33:17;74081.34;;;-147.06;65.19
21594;BME280;10959;51.328;7.322;2023-05-12T05:35:44;74079.31;;;-147.06;65.21
21594;BME280;10959;51.328;7.322;2023-05-12T05:38:10;74064.97;;;-147.06;64.98
21594;BME280;10959;51.328;7.322;2023-05-12T05:40:37;74073.16;;;-147.06;65.08
21594;BME280;10959;51.328;7.322;2023-05-12T05:43:03;74079.31;;;-147.06;65.10
21594;BME280;10959;51.328;7.322;2023-05-12T05:45:32;74069.06;;;-147.06;64.95
21594;BME280;10959;51.328;7.322;2023-05-12T05:47:58;74056.78;;;-147.06;64.95
21594;BME280;10959;51.328;7.322;2023-05-12T05:50:25;74048.56;;;-147.06;64.66
21594;BME280;10959;51.328;7.322;2023-05-12T05:52:51;74040.38;;;-147.06;64.57
21594;BME280;10959;51.328;7.322;2023-05-12T05:55:19;74036.28;;;-147.06;63.99
21594;BME280;10959;51.328;7.322;2023-05-12T05:57:46;74044.47;;;-147.06;64.42
21594;BME280;10959;51.328;7.322;2023-05-12T06:00:14;74030.13;;;-147.06;64.07
21594;BME280;10959;51.328;7.322;2023-05-12T06:02:41;74034.22;;;-147.06;63.95
21594;BME280;10959;51.328;7.322;2023-05-12T06:05:08;74019.91;;;-147.06;63.97
21594;BME280;10959;51.328;7.322;2023-05-12T06:07:36;74036.28;;;-147.06;64.00
21594;BME280;10959;51.328;7.322;2023-05-12T06:10:03;74032.19;;;-147.06;63.94
21594;BME280;10959;51.328;7.322;2023-05-12T06:12:30;74024.00;;;-147.06;63.79
21594;BME280;10959;51.328;7.322;2023-05-12T06:14:56;74024.00;;;-147.06;63.56
21594;BME280;10959;51.328;7.322;2023-05-12T06:17:23;74056.78;;;-147.06;63.75
21594;BME280;10959;51.328;7.322;2023-05-12T06:19:51;74052.66;;;-147.06;63.61
21594;BME280;10959;51.328;7.322;2023-05-12T06:22:17;74060.88;;;-147.06;63.28
21594;BME280;10959;51.328;7.322;2023-05-12T06:24:44;74073.16;;;-147.06;63.22
21594;BME280;10959;51.328;7.322;2023-05-12T06:27:10;74069.06;;;-147.06;63.58
21594;BME280;10959;51.328;7.322;2023-05-12T06:29:37;74081.34;;;-147.06;63.86
21594;BME280;10959;51.328;7.322;2023-05-12T06:32:04;74077.25;;;-147.06;63.67
21594;BME280;10959;51.328;7.322;2023-05-12T06:34:31;74062.91;;;-147.06;63.46
21594;BME280;10959;51.328;7.322;2023-05-12T06:36:59;74040.38;;;-147.06;63.04
21594;BME280;10959;51.328;7.322;2023-05-12T06:39:26;74040.38;;;-147.06;63.13
21594;BME280;10959;51.328;7.322;2023-05-12T06:41:52;74038.34;;;-147.06;63.05
21594;BME280;10959;51.328;7.322;2023-05-12T06:44:19;74048.56;;;-147.06;62.96
21594;BME280;10959;51.328;7.322;2023-05-12T06:46:45;74046.53;;;-147.06;62.83
21594;BME280;10959;51.328;7.322;2023-05-12T06:49:11;74060.88;;;-147.06;63.08
21594;BME280;10959;51.328;7.322;2023-05-12T06:51:38;74069.06;;;-147.06;62.75
21594;BME280;10959;51.328;7.322;2023-05-12T06:54:06;74085.44;;;-147.06;62.44
21594;BME280;10959;51.328;7.322;2023-05-12T06:56:33;74089.53;;;-147.06;62.94
21594;BME280;10959;51.328;7.322;2023-05-12T06:58:59;74083.41;;;-147.06;63.10
21594;BME280;10959;51.328;7.322;2023-05-12T07:01:27;74089.53;;;-147.06;63.20
21594;BME280;10959;51.328;7.322;2023-05-12T07:03:53;74081.34;;;-147.06;63.09
21594;BME280;10959;51.328;7.322;2023-05-12T07:06:20;74067.00;;;-147.06;62.89
21594;BME280;10959;51.328;7.322;2023-05-12T07:08:47;74073.16;;;-147.06;62.59
21594;BME280;10959;51.328;7.322;2023-05-12T07:11:15;74067.00;;;-147.06;62.48
21594;BME280;10959;51.328;7.322;2023-05-12T07:13:44;74085.44;;;-147.06;62.41
21594;BME280;10959;51.328;7.322;2023-05-12T07:16:11;74081.34;;;-147.06;62.51
21594;BME280;10959;51.328;7.322;2023-05-12T07:18:37;74077.25;;;-147.06;62.69
21594;BME280;10959;51.328;7.322;2023-05-12T07:21:04;74069.06;;;-147.06;62.34
21594;BME280;10959;51.328;7.322;2023-05-12T07:23:30;74069.06;;;-147.06;62.28
21594;BME280;10959;51.328;7.322;2023-05-12T07:25:58;74079.31;;;-147.06;62.21
21594;BME280;10959;51.328;7.322;2023-05-12T07:28:26;74064.97;;;-147.06;62.07
21594;BME280;10959;51.328;7.322;2023-05-12T07:30:52;74075.22;;;-147.06;62.16
21594;BME280;10959;51.328;7.322;2023-05-12T07:33:19;74093.66;;;-147.06;62.40
21594;BME280;10959;51.328;7.322;2023-05-12T07:35:45;74105.94;;;-147.06;62.42
21594;BME280;10959;51.328;7.322;2023-05-12T07:38:12;74097.75;;;-147.06;62.86
21594;BME280;10959;51.328;7.322;2023-05-12T07:40:39;74081.34;;;-147.06;62.36
21594;BME280;10959;51.328;7.322;2023-05-12T07:43:05;74077.25;;;-147.06;62.13
21594;BME280;10959;51.328;7.322;2023-05-12T07:45:33;74064.97;;;-147.06;62.40
21594;BME280;10959;51.328;7.322;2023-05-12T07:48:01;74052.66;;;-147.06;62.31
21594;BME280;10959;51.328;7.322;2023-05-12T07:50:27;74052.66;;;-147.06;61.94
21594;BME280;10959;51.328;7.322;2023-05-12T07:52:54;74030.13;;;-147.06;62.07
21594;BME280;10959;51.328;7.322;2023-05-12T07:55:21;74028.09;;;-147.06;61.54
21594;BME280;10959;51.328;7.322;2023-05-12T07:57:48;74015.78;;;-147.06;61.75
21594;BME280;10959;51.328;7.322;2023-05-12T08:00:15;74019.91;;;-147.06;61.46
21594;BME280;10959;51.328;7.322;2023-05-12T08:02:43;74007.59;;;-147.06;61.21
21594;BME280;10959;51.328;7.322;2023-05-12T08:05:11;73999.41;;;-147.06;61.28
21594;BME280;10959;51.328;7.322;2023-05-12T08:07:38;73978.91;;;-147.06;61.18
21594;BME280;10959;51.328;7.322;2023-05-12T08:10:08;73987.13;;;-147.06;61.16
21594;BME280;10959;51.328;7.322;2023-05-12T08:12:35;73995.31;;;-147.06;61.53
21594;BME280;10959;51.328;7.322;2023-05-12T08:15:02;73974.81;;;-147.06;61.50
21594;BME280;10959;51.328;7.322;2023-05-12T08:17:29;73958.44;;;-147.06;61.41
21594;BME280;10959;51.328;7.322;2023-05-12T08:19:56;73958.44;;;-147.06;61.39
21594;BME280;10959;51.328;7.322;2023-05-12T08:22:23;73966.63;;;-147.06;61.38
21594;BME280;10959;51.328;7.322;2023-05-12T08:24:49;73968.69;;;-147.06;61.48
21594;BME280;10959;51.328;7.322;2023-05-12T08:27:17;73950.25;;;-147.06;61.26
21594;BME280;10959;51.328;7.322;2023-05-12T08:29:43;73950.25;;;-147.06;61.50
21594;BME280;10959;51.328;7.322;2023-05-12T08:32:09;73946.16;;;-147.06;60.81
21594;BME280;10959;51.328;7.322;2023-05-12T08:34:36;73923.63;;;-147.06;61.09
21594;BME280;10959;51.328;7.322;2023-05-12T08:37:04;73929.75;;;-147.06;60.84
21594;BME280;10959;51.328;7.322;2023-05-12T08:39:31;73921.56;;;-147.06;60.86
21594;BME280;10959;51.328;7.322;2023-05-12T08:42:06;73929.75;;;-147.06;60.10
21594;BME280;10959;51.328;7.322;2023-05-12T08:44:37;73905.19;;;-147.06;60.64
21594;BME280;10959;51.328;7.322;2023-05-12T08:47:05;73896.97;;;-147.06;59.94
21594;BME280;10959;51.328;7.322;2023-05-12T08:49:34;73884.69;;;-147.06;59.80
21594;BME280;10959;51.328;7.322;2023-05-12T08:52:01;73880.59;;;-147.06;59.37
21594;BME280;10959;51.328;7.322;2023-05-12T08:54:31;73896.97;;;-147.06;59.58
21594;BME280;10959;51.328;7.322;2023-05-12T08:56:58;73888.78;;;-147.06;59.09
21594;BME280;10959;51.328;7.322;2023-05-12T08:59:25;73876.50;;;-147.06;59.73
21594;BME280;10959;51.328;7.322;2023-05-12T09:01:52;73864.19;;;-147.06;59.27
21594;BME280;10959;51.328;7.322;2023-05-12T09:04:20;73856.00;;;-147.06;59.05
21594;BME280;10959;51.328;7.322;2023-05-12T09:06:46;73856.00;;;-147.06;57.88
21594;BME280;10959;51.328;7.322;2023-05-12T09:09:15;73856.00;;;-147.06;58.22
21594;BME280;10959;51.328;7.322;2023-05-12T09:11:45;73860.09;;;-147.06;57.86
21594;BME280;10959;51.328;7.322;2023-05-12T09:14:17;73851.91;;;-147.06;58.14
21594;BME280;10959;51.328;7.322;2023-05-12T09:16:45;73831.44;;;-147.06;57.90
21594;BME280;10959;51.328;7.322;2023-05-12T09:19:18;73823.22;;;-147.06;57.57
21594;BME280;10959;51.328;7.322;2023-05-12T09:21:44;73790.47;;;-147.06;57.95
21594;BME280;10959;51.328;7.322;2023-05-12T09:24:11;73778.16;;;-147.06;57.58
21594;BME280;10959;51.328;7.322;2023-05-12T09:26:46;73806.84;;;-147.06;56.67
21594;BME280;10959;51.328;7.322;2023-05-12T09:29:13;73749.50;;;-147.06;56.91
21594;BME280;10959;51.328;7.322;2023-05-12T09:31:48;73769.97;;;-147.06;56.35
21594;BME280;10959;51.328;7.322;2023-05-12T09:34:16;73733.09;;;-147.06;56.16
21594;BME280;10959;51.328;7.322;2023-05-12T09:36:43;73739.25;;;-147.06;56.10
21594;BME280;10959;51.328;7.322;2023-05-12T09:39:10;73741.28;;;-147.06;56.18
21594;BME280;10959;51.328;7.322;2023-05-12T09:41:38;73731.06;;;-147.06;56.25
21594;BME280;10959;51.328;7.322;2023-05-12T09:44:07;73720.81;;;-147.06;56.23
21594;BME280;10959;51.328;7.322;2023-05-12T09:46:34;73710.56;;;-147.06;55.90
21594;BME280;10959;51.328;7.322;2023-05-12T09:49:01;73696.22;;;-147.06;55.89
21594;BME280;10959;51.328;7.322;2023-05-12T09:51:28;73696.22;;;-147.06;55.01
21594;BME280;10959;51.328;7.322;2023-05-12T09:53:54;73683.94;;;-147.06;55.00
21594;BME280;10959;51.328;7.322;2023-05-12T09:56:21;73706.47;;;-147.06;54.75
21594;BME280;10959;51.328;7.322;2023-05-12T09:58:49;73704.44;;;-147.06;55.12
21594;BME280;10959;51.328;7.322;2023-05-12T10:01:19;73692.13;;;-147.06;55.10
21594;BME280;10959;51.328;7.322;2023-05-12T10:03:48;73692.13;;;-147.06;54.65
21594;BME280;10959;51.328;7.322;2023-05-12T10:06:20;73720.81;;;-147.06;54.37
21594;BME280;10959;51.328;7.322;2023-05-12T10:08:53;73692.13;;;-147.06;53.74
21594;BME280;10959;51.328;7.322;2023-05-12T10:11:21;73671.66;;;-147.06;53.72
21594;BME280;10959;51.328;7.322;2023-05-12T10:13:47;73673.69;;;-147.06;52.82
21594;BME280;10959;51.328;7.322;2023-05-12T10:16:14;73686.00;;;-147.06;53.55
21594;BME280;10959;51.328;7.322;2023-05-12T10:18:43;73659.34;;;-147.06;54.22
21594;BME280;10959;51.328;7.322;2023-05-12T10:21:11;73651.16;;;-147.06;53.21
21594;BME280;10959;51.328;7.322;2023-05-12T10:23:39;73626.59;;;-147.06;53.80
21594;BME280;10959;51.328;7.322;2023-05-12T10:26:08;73616.34;;;-147.06;52.98
21594;BME280;10959;51.328;7.322;2023-05-12T10:28:35;73614.28;;;-147.06;52.82
21594;BME280;10959;51.328;7.322;2023-05-12T10:31:04;73602.00;;;-147.06;52.23
21594;BME280;10959;51.328;7.322;2023-05-12T10:33:31;73581.53;;;-147.06;52.18
21594;BME280;10959;51.328;7.322;2023-05-12T10:35:59;73581.53;;;-147.06;51.48
21594;BME280;10959;51.328;7.322;2023-05-12T10:38:25;73585.63;;;-147.06;51.49
21594;BME280;10959;51.328;7.322;2023-05-12T10:40:53;73581.53;;;-147.06;51.48
21594;BME280;10959;51.328;7.322;2023-05-12T10:43:22;73575.38;;;-147.06;50.55
21594;BME280;10959;51.328;7.322;2023-05-12T10:46:14;73606.09;;;-147.06;50.58
21594;BME280;10959;51.328;7.322;2023-05-12T10:48:50;73565.13;;;-147.06;50.45
21594;BME280;10959;51.328;7.322;2023-05-12T10:51:20;73515.97;;;-147.06;50.46
21594;BME280;10959;51.328;7.322;2023-05-12T10:53:50;73487.31;;;-147.06;50.10
21594;BME280;10959;51.328;7.322;2023-05-12T10:56:21;73518.03;;;-147.06;49.08
21594;BME280;10959;51.328;7.322;2023-05-12T10:59:06;73503.69;;;-147.06;49.67
21594;BME280;10959;51.328;7.322;2023-05-12T11:01:33;73462.72;;;-147.06;49.81
21594;BME280;10959;51.328;7.322;2023-05-12T11:04:09;73481.16;;;-147.06;49.29
21594;BME280;10959;51.328;7.322;2023-05-12T11:06:37;73434.03;;;-147.06;50.26
21594;BME280;10959;51.328;7.322;2023-05-12T11:09:04;73405.38;;;-147.06;49.14
21594;BME280;10959;51.328;7.322;2023-05-12T11:11:30;73372.59;;;-147.06;49.60
21594;BME280;10959;51.328;7.322;2023-05-12T11:13:57;73319.34;;;-147.06;49.03
21594;BME280;10959;51.328;7.322;2023-05-12T11:16:24;73311.16;;;-147.06;47.47
21594;BME280;10959;51.328;7.322;2023-05-12T11:18:59;73317.28;;;-147.06;47.32
21594;BME280;10959;51.328;7.322;2023-05-12T11:21:26;73262.00;;;-147.06;47.55
21594;BME280;10959;51.328;7.322;2023-05-12T11:23:56;73233.31;;;-147.06;46.48
21594;BME280;10959;51.328;7.322;2023-05-12T11:26:23;73262.00;;;-147.06;46.48
21594;BME280;10959;51.328;7.322;2023-05-12T11:28:49;73237.41;;;-147.06;46.92
21594;BME280;10959;51.328;7.322;2023-05-12T11:31:17;73262.00;;;-147.06;46.44
21594;BME280;10959;51.328;7.322;2023-05-12T11:33:44;73229.22;;;-147.06;46.68
21594;BME280;10959;51.328;7.322;2023-05-12T11:36:10;73208.75;;;-147.06;46.68
21594;BME280;10959;51.328;7.322;2023-05-12T11:38:37;73180.06;;;-147.06;45.29
21594;BME280;10959;51.328;7.322;2023-05-12T11:41:05;73235.38;;;-147.06;44.41
21594;BME280;10959;51.328;7.322;2023-05-12T11:43:32;73249.69;;;-147.06;45.89
21594;BME280;10959;51.328;7.322;2023-05-12T11:45:58;73241.50;;;-147.06;46.41
21594;BME280;10959;51.328;7.322;2023-05-12T11:48:31;73257.91;;;-147.06;46.13
21594;BME280;10959;51.328;7.322;2023-05-12T11:50:58;73249.69;;;-147.06;45.71
21594;BME280;10959;51.328;7.322;2023-05-12T11:53:25;73272.22;;;-147.06;46.11
21594;BME280;10959;51.328;7.322;2023-05-12T11:55:53;73266.09;;;-147.06;46.01
21594;BME280;10959;51.328;7.322;2023-05-12T11:58:22;73290.66;;;-147.06;47.15
21594;BME280;10959;51.328;7.322;2023-05-12T12:00:50;73298.84;;;-147.06;47.31
21594;BME280;10959;51.328;7.322;2023-05-12T12:03:18;73298.84;;;-147.06;46.75
21594;BME280;10959;51.328;7.322;2023-05-12T12:05:57;73339.81;;;-147.06;46.48
21594;BME280;10959;51.328;7.322;2023-05-12T12:08:24;73343.91;;;-147.06;47.60
21594;BME280;10959;51.328;7.322;2023-05-12T12:10:50;73360.31;;;-147.06;47.94
21594;BME280;10959;51.328;7.322;2023-05-12T12:13:19;73364.41;;;-147.06;47.90
21594;BME280;10959;51.328;7.322;2023-05-12T12:15:47;73380.78;;;-147.06;47.54
21594;BME280;10959;51.328;7.322;2023-05-12T12:18:14;73368.50;;;-147.06;47.83
21594;BME280;10959;51.328;7.322;2023-05-12T12:20:41;73393.06;;;-147.06;47.66
21594;BME280;10959;51.328;7.322;2023-05-12T12:23:09;73372.59;;;-147.06;47.88
21594;BME280;10959;51.328;7.322;2023-05-12T12:25:36;73335.72;;;-147.06;47.96
21594;BME280;10959;51.328;7.322;2023-05-12T12:28:03;73264.03;;;-147.06;47.51
21594;BME280;10959;51.328;7.322;2023-05-12T12:30:29;73204.66;;;-147.06;46.41
21594;BME280;10959;51.328;7.322;2023-05-12T12:32:57;73139.09;;;-147.06;45.58
21594;BME280;10959;51.328;7.322;2023-05-12T12:35:24;73171.88;;;-147.06;44.85
21594;BME280;10959;51.328;7.322;2023-05-12T12:37:50;73196.44;;;-147.06;44.78
21594;BME280;10959;51.328;7.322;2023-05-12T12:40:17;73216.94;;;-147.06;44.61
21594;BME280;10959;51.328;7.322;2023-05-12T12:42:44;73282.47;;;-147.06;44.24